sensor_id;sensor_type;location;lat;lon;timestamp;temperature;humidity
7842;DHT22;3966;51.052;13.820;2022-10-26T00:00:46;11.40;99.90
7842;DHT22;3966;51.052;13.820;2022-10-26T00:03:12;11.50;99.90
7842;DHT22;3966;51.052;13.820;2022-10-26T00:05:38;11.60;99.90
7842;DHT22;3966;51.052;13.820;2022-10-26T00:08:04;11.60;99.90
7842;DHT22;3966;51.052;13.820;2022-10-26T00:10:30;11.40;99.90
7842;DHT22;3966;51.052;13.820;2022-10-26T00:12:55;11.30;99.90
7842;DHT22;3966;51.052;13.820;2022-10-26T00:15:21;11.30;99.90
7842;DHT22;3966;51.052;13.820;2022-10-26T00:17:47;11.40;99.90
7842;DHT22;3966;51.052;13.820;2022-10-26T00:20:13;11.30;99.90
7842;DHT22;3966;51.052;13.820;2022-10-26T00:22:39;11.30;99.90
7842;DHT22;3966;51.052;13.820;2022-10-26T00:25:05;11.40;99.90
7842;DHT22;3966;51.052;13.820;2022-10-26T00:27:32;11.20;99.90
7842;DHT22;3966;51.052;13.820;2022-10-26T00:30:00;11.40;99.90
7842;DHT22;3966;51.052;13.820;2022-10-26T00:32:26;11.20;99.90
7842;DHT22;3966;51.052;13.820;2022-10-26T00:34:52;11.10;99.90
7842;DHT22;3966;51.052;13.820;2022-10-26T00:37:17;10.90;99.90
7842;DHT22;3966;51.052;13.820;2022-10-26T00:39:43;11.20;99.90
7842;DHT22;3966;51.052;13.820;2022-10-26T00:42:13;11.10;99.90
7842;DHT22;3966;51.052;13.820;2022-10-26T00:47:17;11.00;99.90
7842;DHT22;3966;51.052;13.820;2022-10-26T00:49:47;10.90;99.90
7842;DHT22;3966;51.052;13.820;2022-10-26T00:52:14;11.10;99.90
7842;DHT22;3966;51.052;13.820;2022-10-26T00:54:41;11.10;99.90
7842;DHT22;3966;51.052;13.820;2022-10-26T00:57:07;11.10;99.90
7842;DHT22;3966;51.052;13.820;2022-10-26T00:59:33;11.00;99.90
7842;DHT22;3966;51.052;13.820;2022-10-26T01:01:58;11.10;99.90
7842;DHT22;3966;51.052;13.820;2022-10-26T01:04:24;11.00;99.90
7842;DHT22;3966;51.052;13.820;2022-10-26T01:06:51;10.70;99.90
7842;DHT22;3966;51.052;13.820;2022-10-26T01:09:17;10.90;99.90
7842;DHT22;3966;51.052;13.820;2022-10-26T01:11:43;11.00;99.90
7842;DHT22;3966;51.052;13.820;2022-10-26T01:14:10;11.20;99.90
7842;DHT22;3966;51.052;13.820;2022-10-26T01:17:36;11.10;99.90
7842;DHT22;3966;51.052;13.820;2022-10-26T01:22:53;11.30;99.90
7842;DHT22;3966;51.052;13.820;2022-10-26T01:31:31;10.70;99.90
7842;DHT22;3966;51.052;13.820;2022-10-26T01:34:21;10.70;99.90
7842;DHT22;3966;51.052;13.820;2022-10-26T01:36:55;10.80;99.90
7842;DHT22;3966;51.052;13.820;2022-10-26T01:39:45;10.80;99.90
7842;DHT22;3966;51.052;13.820;2022-10-26T01:42:14;10.50;99.90
7842;DHT22;3966;51.052;13.820;2022-10-26T01:44:52;10.10;99.90
7842;DHT22;3966;51.052;13.820;2022-10-26T01:47:21;10.40;99.90
7842;DHT22;3966;51.052;13.820;2022-10-26T01:49:51;10.60;99.90
7842;DHT22;3966;51.052;13.820;2022-10-26T01:52:19;10.70;99.90
7842;DHT22;3966;51.052;13.820;2022-10-26T01:54:44;10.70;99.90
7842;DHT22;3966;51.052;13.820;2022-10-26T01:57:12;10.70;99.90
7842;DHT22;3966;51.052;13.820;2022-10-26T02:00:04;10.60;99.90
7842;DHT22;3966;51.052;13.820;2022-10-26T02:05:30;10.40;99.90
7842;DHT22;3966;51.052;13.820;2022-10-26T02:13:25;10.60;99.90
7842;DHT22;3966;51.052;13.820;2022-10-26T02:21:30;10.70;99.90
7842;DHT22;3966;51.052;13.820;2022-10-26T02:24:01;10.70;99.90
7842;DHT22;3966;51.052;13.820;2022-10-26T02:26:27;10.60;99.90
7842;DHT22;3966;51.052;13.820;2022-10-26T02:28:59;10.40;99.90
7842;DHT22;3966;51.052;13.820;2022-10-26T02:31:29;10.50;99.90
7842;DHT22;3966;51.052;13.820;2022-10-26T02:33:57;10.50;99.90
7842;DHT22;3966;51.052;13.820;2022-10-26T02:36:30;10.20;99.90
7842;DHT22;3966;51.052;13.820;2022-10-26T02:38:57;10.00;99.90
7842;DHT22;3966;51.052;13.820;2022-10-26T02:41:25;10.10;99.90
7842;DHT22;3966;51.052;13.820;2022-10-26T02:46:53;10.30;99.90
7842;DHT22;3966;51.052;13.820;2022-10-26T02:49:20;10.50;99.90
7842;DHT22;3966;51.052;13.820;2022-10-26T02:51:52;10.50;99.90
7842;DHT22;3966;51.052;13.820;2022-10-26T02:57:17;10.30;99.90
7842;DHT22;3966;51.052;13.820;2022-10-26T02:59:45;10.20;99.90
7842;DHT22;3966;51.052;13.820;2022-10-26T03:02:16;10.50;99.90
7842;DHT22;3966;51.052;13.820;2022-10-26T03:04:42;10.50;99.90
7842;DHT22;3966;51.052;13.820;2022-10-26T03:07:08;10.50;99.90
7842;DHT22;3966;51.052;13.820;2022-10-26T03:09:33;10.30;99.90
7842;DHT22;3966;51.052;13.820;2022-10-26T03:11:59;10.50;99.90
7842;DHT22;3966;51.052;13.820;2022-10-26T03:14:27;10.40;99.90
7842;DHT22;3966;51.052;13.820;2022-10-26T03:16:53;10.40;99.90
7842;DHT22;3966;51.052;13.820;2022-10-26T03:19:18;10.50;99.90
7842;DHT22;3966;51.052;13.820;2022-10-26T03:21:44;10.30;99.90
7842;DHT22;3966;51.052;13.820;2022-10-26T03:24:09;10.50;99.90
7842;DHT22;3966;51.052;13.820;2022-10-26T03:26:35;10.40;99.90
7842;DHT22;3966;51.052;13.820;2022-10-26T03:29:01;10.30;99.90
7842;DHT22;3966;51.052;13.820;2022-10-26T03:31:26;10.40;99.90
7842;DHT22;3966;51.052;13.820;2022-10-26T03:33:52;10.50;99.90
7842;DHT22;3966;51.052;13.820;2022-10-26T03:36:18;10.40;99.90
7842;DHT22;3966;51.052;13.820;2022-10-26T03:38:44;10.30;99.90
7842;DHT22;3966;51.052;13.820;2022-10-26T03:41:09;10.10;99.90
7842;DHT22;3966;51.052;13.820;2022-10-26T03:43:35;10.00;99.90
7842;DHT22;3966;51.052;13.820;2022-10-26T03:46:00;9.90;99.90
7842;DHT22;3966;51.052;13.820;2022-10-26T03:48:26;10.00;99.90
7842;DHT22;3966;51.052;13.820;2022-10-26T03:50:51;10.20;99.90
7842;DHT22;3966;51.052;13.820;2022-10-26T03:53:17;10.40;99.90
7842;DHT22;3966;51.052;13.820;2022-10-26T03:55:45;10.30;99.90
7842;DHT22;3966;51.052;13.820;2022-10-26T03:58:11;10.30;99.90
7842;DHT22;3966;51.052;13.820;2022-10-26T04:00:36;10.50;99.90
7842;DHT22;3966;51.052;13.820;2022-10-26T04:03:02;10.50;99.90
7842;DHT22;3966;51.052;13.820;2022-10-26T04:05:28;10.50;99.90
7842;DHT22;3966;51.052;13.820;2022-10-26T04:07:58;10.60;99.90
7842;DHT22;3966;51.052;13.820;2022-10-26T04:10:25;10.40;99.90
7842;DHT22;3966;51.052;13.820;2022-10-26T04:12:51;10.30;99.90
7842;DHT22;3966;51.052;13.820;2022-10-26T04:15:17;10.20;99.90
7842;DHT22;3966;51.052;13.820;2022-10-26T04:17:43;10.00;99.90
7842;DHT22;3966;51.052;13.820;2022-10-26T04:20:09;10.00;99.90
7842;DHT22;3966;51.052;13.820;2022-10-26T04:22:35;9.90;99.90
7842;DHT22;3966;51.052;13.820;2022-10-26T04:25:02;9.90;99.90
7842;DHT22;3966;51.052;13.820;2022-10-26T04:27:28;9.90;99.90
7842;DHT22;3966;51.052;13.820;2022-10-26T04:29:53;10.00;99.90
7842;DHT22;3966;51.052;13.820;2022-10-26T04:32:19;10.10;99.90
7842;DHT22;3966;51.052;13.820;2022-10-26T04:34:44;10.10;99.90
7842;DHT22;3966;51.052;13.820;2022-10-26T04:37:10;10.10;99.90
7842;DHT22;3966;51.052;13.820;2022-10-26T04:39:35;10.10;99.90
7842;DHT22;3966;51.052;13.820;2022-10-26T04:42:01;10.10;99.90
7842;DHT22;3966;51.052;13.820;2022-10-26T04:44:27;10.00;99.90
7842;DHT22;3966;51.052;13.820;2022-10-26T04:46:53;10.00;99.90
7842;DHT22;3966;51.052;13.820;2022-10-26T04:49:18;9.90;99.90
7842;DHT22;3966;51.052;13.820;2022-10-26T04:51:44;10.00;99.90
7842;DHT22;3966;51.052;13.820;2022-10-26T04:54:12;9.80;99.90
7842;DHT22;3966;51.052;13.820;2022-10-26T04:56:38;9.70;99.90
7842;DHT22;3966;51.052;13.820;2022-10-26T04:59:04;9.60;99.90
7842;DHT22;3966;51.052;13.820;2022-10-26T05:01:30;9.60;99.90
7842;DHT22;3966;51.052;13.820;2022-10-26T05:03:56;9.70;99.90
7842;DHT22;3966;51.052;13.820;2022-10-26T05:06:22;9.60;99.90
7842;DHT22;3966;51.052;13.820;2022-10-26T05:08:47;9.50;99.90
7842;DHT22;3966;51.052;13.820;2022-10-26T05:11:13;9.70;99.90
7842;DHT22;3966;51.052;13.820;2022-10-26T05:13:38;9.90;99.90
7842;DHT22;3966;51.052;13.820;2022-10-26T05:16:04;10.10;99.90
7842;DHT22;3966;51.052;13.820;2022-10-26T05:18:30;10.00;99.90
7842;DHT22;3966;51.052;13.820;2022-10-26T05:20:56;10.10;99.90
7842;DHT22;3966;51.052;13.820;2022-10-26T05:23:22;9.90;99.90
7842;DHT22;3966;51.052;13.820;2022-10-26T05:25:48;9.70;99.90
7842;DHT22;3966;51.052;13.820;2022-10-26T05:28:14;9.70;99.90
7842;DHT22;3966;51.052;13.820;2022-10-26T05:30:42;9.90;99.90
7842;DHT22;3966;51.052;13.820;2022-10-26T05:33:09;10.00;99.90
7842;DHT22;3966;51.052;13.820;2022-10-26T05:35:35;9.90;99.90
7842;DHT22;3966;51.052;13.820;2022-10-26T05:38:15;9.80;99.90
7842;DHT22;3966;51.052;13.820;2022-10-26T05:40:52;10.00;99.90
7842;DHT22;3966;51.052;13.820;2022-10-26T05:43:19;10.00;99.90
7842;DHT22;3966;51.052;13.820;2022-10-26T05:45:45;9.70;99.90
7842;DHT22;3966;51.052;13.820;2022-10-26T05:48:11;9.60;99.90
7842;DHT22;3966;51.052;13.820;2022-10-26T05:50:36;9.80;99.90
7842;DHT22;3966;51.052;13.820;2022-10-26T05:53:02;9.90;99.90
7842;DHT22;3966;51.052;13.820;2022-10-26T05:55:28;9.70;99.90
7842;DHT22;3966;51.052;13.820;2022-10-26T05:57:54;9.50;99.90
7842;DHT22;3966;51.052;13.820;2022-10-26T06:00:22;9.70;99.90
7842;DHT22;3966;51.052;13.820;2022-10-26T06:03:07;9.70;99.90
7842;DHT22;3966;51.052;13.820;2022-10-26T06:05:58;9.80;99.90
7842;DHT22;3966;51.052;13.820;2022-10-26T06:08:26;9.90;99.90
7842;DHT22;3966;51.052;13.820;2022-10-26T06:10:53;10.00;99.90
7842;DHT22;3966;51.052;13.820;2022-10-26T06:13:19;9.80;99.90
7842;DHT22;3966;51.052;13.820;2022-10-26T06:21:28;9.70;99.90
7842;DHT22;3966;51.052;13.820;2022-10-26T06:31:58;9.80;99.90
7842;DHT22;3966;51.052;13.820;2022-10-26T06:34:26;9.90;99.90
7842;DHT22;3966;51.052;13.820;2022-10-26T06:36:54;9.90;99.90
7842;DHT22;3966;51.052;13.820;2022-10-26T06:39:22;9.90;99.90
7842;DHT22;3966;51.052;13.820;2022-10-26T06:41:50;10.00;99.90
7842;DHT22;3966;51.052;13.820;2022-10-26T06:44:21;10.10;99.90
7842;DHT22;3966;51.052;13.820;2022-10-26T06:52:04;10.00;99.90
7842;DHT22;3966;51.052;13.820;2022-10-26T06:57:20;10.20;99.90
7842;DHT22;3966;51.052;13.820;2022-10-26T06:59:57;10.20;99.90
7842;DHT22;3966;51.052;13.820;2022-10-26T07:02:24;10.30;99.90
7842;DHT22;3966;51.052;13.820;2022-10-26T07:04:50;10.40;99.90
7842;DHT22;3966;51.052;13.820;2022-10-26T07:07:20;10.30;99.90
7842;DHT22;3966;51.052;13.820;2022-10-26T07:09:47;10.50;99.90
7842;DHT22;3966;51.052;13.820;2022-10-26T07:12:12;11.30;99.90
7842;DHT22;3966;51.052;13.820;2022-10-26T07:14:38;11.80;99.90
7842;DHT22;3966;51.052;13.820;2022-10-26T07:17:04;12.00;99.90
7842;DHT22;3966;51.052;13.820;2022-10-26T07:19:29;12.30;99.90
7842;DHT22;3966;51.052;13.820;2022-10-26T07:21:56;12.40;99.90
7842;DHT22;3966;51.052;13.820;2022-10-26T07:24:23;12.50;99.90
7842;DHT22;3966;51.052;13.820;2022-10-26T07:26:49;12.20;99.90
7842;DHT22;3966;51.052;13.820;2022-10-26T07:29:14;12.30;99.90
7842;DHT22;3966;51.052;13.820;2022-10-26T07:31:43;12.40;99.90
7842;DHT22;3966;51.052;13.820;2022-10-26T07:34:08;12.50;99.90
7842;DHT22;3966;51.052;13.820;2022-10-26T07:36:34;12.30;99.90
7842;DHT22;3966;51.052;13.820;2022-10-26T07:39:02;12.40;99.90
7842;DHT22;3966;51.052;13.820;2022-10-26T07:41:27;12.60;99.90
7842;DHT22;3966;51.052;13.820;2022-10-26T07:43:53;12.50;99.90
7842;DHT22;3966;51.052;13.820;2022-10-26T07:46:18;12.40;99.90
7842;DHT22;3966;51.052;13.820;2022-10-26T07:48:44;12.30;99.90
7842;DHT22;3966;51.052;13.820;2022-10-26T07:51:09;12.40;99.90
7842;DHT22;3966;51.052;13.820;2022-10-26T07:53:35;12.70;99.90
7842;DHT22;3966;51.052;13.820;2022-10-26T07:56:00;13.00;99.90
7842;DHT22;3966;51.052;13.820;2022-10-26T07:58:26;13.00;99.90
7842;DHT22;3966;51.052;13.820;2022-10-26T08:00:53;12.90;99.90
7842;DHT22;3966;51.052;13.820;2022-10-26T08:03:19;13.00;99.90
7842;DHT22;3966;51.052;13.820;2022-10-26T08:05:45;12.70;99.90
7842;DHT22;3966;51.052;13.820;2022-10-26T08:08:12;12.70;99.90
7842;DHT22;3966;51.052;13.820;2022-10-26T08:10:41;12.60;99.90
7842;DHT22;3966;51.052;13.820;2022-10-26T08:13:08;12.60;99.90
7842;DHT22;3966;51.052;13.820;2022-10-26T08:15:33;12.40;99.90
7842;DHT22;3966;51.052;13.820;2022-10-26T08:17:59;12.10;99.90
7842;DHT22;3966;51.052;13.820;2022-10-26T08:20:24;12.00;99.90
7842;DHT22;3966;51.052;13.820;2022-10-26T08:22:50;12.20;99.90
7842;DHT22;3966;51.052;13.820;2022-10-26T08:25:17;12.30;99.90
7842;DHT22;3966;51.052;13.820;2022-10-26T08:27:43;12.40;99.90
7842;DHT22;3966;51.052;13.820;2022-10-26T08:30:08;12.60;99.90
7842;DHT22;3966;51.052;13.820;2022-10-26T08:32:34;12.80;99.90
7842;DHT22;3966;51.052;13.820;2022-10-26T08:35:00;12.90;99.90
7842;DHT22;3966;51.052;13.820;2022-10-26T08:39:53;12.90;99.90
7842;DHT22;3966;51.052;13.820;2022-10-26T08:42:24;13.00;99.90
7842;DHT22;3966;51.052;13.820;2022-10-26T08:44:56;13.10;99.90
7842;DHT22;3966;51.052;13.820;2022-10-26T08:47:36;13.10;99.90
7842;DHT22;3966;51.052;13.820;2022-10-26T08:50:30;13.00;99.90
7842;DHT22;3966;51.052;13.820;2022-10-26T08:53:16;13.00;99.90
7842;DHT22;3966;51.052;13.820;2022-10-26T08:56:05;13.20;99.90
7842;DHT22;3966;51.052;13.820;2022-10-26T08:58:37;13.50;99.90
7842;DHT22;3966;51.052;13.820;2022-10-26T09:01:04;13.50;99.90
7842;DHT22;3966;51.052;13.820;2022-10-26T09:03:30;13.60;99.90
7842;DHT22;3966;51.052;13.820;2022-10-26T09:08:55;14.00;99.90
7842;DHT22;3966;51.052;13.820;2022-10-26T09:11:49;14.20;99.90
7842;DHT22;3966;51.052;13.820;2022-10-26T09:14:23;14.30;99.90
7842;DHT22;3966;51.052;13.820;2022-10-26T09:17:24;14.40;99.90
7842;DHT22;3966;51.052;13.820;2022-10-26T09:23:16;14.80;99.90
7842;DHT22;3966;51.052;13.820;2022-10-26T09:25:52;14.90;99.90
7842;DHT22;3966;51.052;13.820;2022-10-26T09:28:20;15.00;99.90
7842;DHT22;3966;51.052;13.820;2022-10-26T09:30:46;15.10;99.90
7842;DHT22;3966;51.052;13.820;2022-10-26T09:33:21;15.30;99.90
7842;DHT22;3966;51.052;13.820;2022-10-26T09:36:01;15.40;99.90
7842;DHT22;3966;51.052;13.820;2022-10-26T09:41:27;15.60;99.90
7842;DHT22;3966;51.052;13.820;2022-10-26T09:44:06;15.70;99.90
7842;DHT22;3966;51.052;13.820;2022-10-26T09:46:47;15.80;99.90
7842;DHT22;3966;51.052;13.820;2022-10-26T09:49:16;16.00;99.90
7842;DHT22;3966;51.052;13.820;2022-10-26T09:51:43;16.10;99.90
7842;DHT22;3966;51.052;13.820;2022-10-26T09:54:17;16.30;99.90
7842;DHT22;3966;51.052;13.820;2022-10-26T09:56:46;16.50;99.90
7842;DHT22;3966;51.052;13.820;2022-10-26T09:59:13;16.60;99.90
7842;DHT22;3966;51.052;13.820;2022-10-26T10:01:40;16.90;99.90
7842;DHT22;3966;51.052;13.820;2022-10-26T10:06:46;17.20;99.90
7842;DHT22;3966;51.052;13.820;2022-10-26T10:11:58;17.50;99.90
7842;DHT22;3966;51.052;13.820;2022-10-26T10:14:35;17.50;99.90
7842;DHT22;3966;51.052;13.820;2022-10-26T10:17:04;17.70;99.90
7842;DHT22;3966;51.052;13.820;2022-10-26T10:19:34;17.90;99.90
7842;DHT22;3966;51.052;13.820;2022-10-26T10:22:08;18.10;99.90
7842;DHT22;3966;51.052;13.820;2022-10-26T10:24:37;18.30;99.90
7842;DHT22;3966;51.052;13.820;2022-10-26T10:29:47;18.60;99.90
7842;DHT22;3966;51.052;13.820;2022-10-26T10:32:18;18.80;99.90
7842;DHT22;3966;51.052;13.820;2022-10-26T10:34:48;18.90;99.90
7842;DHT22;3966;51.052;13.820;2022-10-26T10:40:07;19.20;99.90
7842;DHT22;3966;51.052;13.820;2022-10-26T10:42:36;19.30;99.90
7842;DHT22;3966;51.052;13.820;2022-10-26T10:45:03;19.30;99.90
7842;DHT22;3966;51.052;13.820;2022-10-26T10:47:34;19.50;99.90
7842;DHT22;3966;51.052;13.820;2022-10-26T10:50:17;19.60;99.90
7842;DHT22;3966;51.052;13.820;2022-10-26T10:52:44;19.70;99.90
7842;DHT22;3966;51.052;13.820;2022-10-26T11:00:30;20.00;99.90
7842;DHT22;3966;51.052;13.820;2022-10-26T11:11:30;20.60;99.90
7842;DHT22;3966;51.052;13.820;2022-10-26T11:14:05;20.70;99.90
7842;DHT22;3966;51.052;13.820;2022-10-26T11:16:38;20.80;99.90
7842;DHT22;3966;51.052;13.820;2022-10-26T11:19:30;20.70;99.90
7842;DHT22;3966;51.052;13.820;2022-10-26T11:21:58;20.90;99.90
7842;DHT22;3966;51.052;13.820;2022-10-26T11:24:55;21.00;99.90
7842;DHT22;3966;51.052;13.820;2022-10-26T11:27:30;21.20;99.90
7842;DHT22;3966;51.052;13.820;2022-10-26T11:30:17;21.10;99.90
7842;DHT22;3966;51.052;13.820;2022-10-26T11:33:05;21.20;99.90
7842;DHT22;3966;51.052;13.820;2022-10-26T11:35:43;21.40;99.90
7842;DHT22;3966;51.052;13.820;2022-10-26T11:41:05;21.90;99.90
7842;DHT22;3966;51.052;13.820;2022-10-26T11:43:47;21.90;99.90
7842;DHT22;3966;51.052;13.820;2022-10-26T11:46:33;22.20;99.90
7842;DHT22;3966;51.052;13.820;2022-10-26T11:51:57;22.20;99.90
7842;DHT22;3966;51.052;13.820;2022-10-26T11:56:52;22.20;99.90
7842;DHT22;3966;51.052;13.820;2022-10-26T11:59:20;22.20;99.90
7842;DHT22;3966;51.052;13.820;2022-10-26T12:01:51;22.20;99.90
7842;DHT22;3966;51.052;13.820;2022-10-26T12:04:22;22.30;99.90
7842;DHT22;3966;51.052;13.820;2022-10-26T12:06:50;22.50;99.90
7842;DHT22;3966;51.052;13.820;2022-10-26T12:09:21;22.60;99.90
7842;DHT22;3966;51.052;13.820;2022-10-26T12:14:36;22.50;99.90
7842;DHT22;3966;51.052;13.820;2022-10-26T12:17:09;22.50;99.90
7842;DHT22;3966;51.052;13.820;2022-10-26T12:22:47;22.90;99.90
7842;DHT22;3966;51.052;13.820;2022-10-26T12:35:41;22.90;99.90
7842;DHT22;3966;51.052;13.820;2022-10-26T12:41:06;22.70;99.90
7842;DHT22;3966;51.052;13.820;2022-10-26T12:43:33;22.20;99.90
7842;DHT22;3966;51.052;13.820;2022-10-26T12:48:45;22.20;99.90
7842;DHT22;3966;51.052;13.820;2022-10-26T12:54:20;22.20;99.90
7842;DHT22;3966;51.052;13.820;2022-10-26T12:56:57;22.00;99.90
7842;DHT22;3966;51.052;13.820;2022-10-26T13:02:18;21.70;99.90
7842;DHT22;3966;51.052;13.820;2022-10-26T13:05:22;22.00;99.90
7842;DHT22;3966;51.052;13.820;2022-10-26T13:08:07;22.10;99.90
7842;DHT22;3966;51.052;13.820;2022-10-26T13:10:35;22.30;99.90
7842;DHT22;3966;51.052;13.820;2022-10-26T13:13:04;22.40;99.90
7842;DHT22;3966;51.052;13.820;2022-10-26T13:15:52;22.20;99.90
7842;DHT22;3966;51.052;13.820;2022-10-26T13:18:35;22.10;99.90
7842;DHT22;3966;51.052;13.820;2022-10-26T13:21:12;21.80;99.90
7842;DHT22;3966;51.052;13.820;2022-10-26T13:23:59;21.40;99.90
7842;DHT22;3966;51.052;13.820;2022-10-26T13:29:28;21.20;99.90
7842;DHT22;3966;51.052;13.820;2022-10-26T13:31:54;21.00;99.90
7842;DHT22;3966;51.052;13.820;2022-10-26T13:34:22;20.80;99.90
7842;DHT22;3966;51.052;13.820;2022-10-26T13:37:02;20.60;99.90
7842;DHT22;3966;51.052;13.820;2022-10-26T13:39:35;20.60;99.90
7842;DHT22;3966;51.052;13.820;2022-10-26T13:42:02;20.70;99.90
7842;DHT22;3966;51.052;13.820;2022-10-26T13:44:40;20.90;99.90
7842;DHT22;3966;51.052;13.820;2022-10-26T13:47:11;20.90;99.90
7842;DHT22;3966;51.052;13.820;2022-10-26T13:49:41;20.80;99.90
7842;DHT22;3966;51.052;13.820;2022-10-26T13:52:27;20.40;99.90
7842;DHT22;3966;51.052;13.820;2022-10-26T13:55:01;19.80;99.90
7842;DHT22;3966;51.052;13.820;2022-10-26T13:57:41;19.70;99.90
7842;DHT22;3966;51.052;13.820;2022-10-26T14:00:20;19.60;99.90
7842;DHT22;3966;51.052;13.820;2022-10-26T14:02:47;19.60;99.90
7842;DHT22;3966;51.052;13.820;2022-10-26T14:05:15;19.60;99.90
7842;DHT22;3966;51.052;13.820;2022-10-26T14:07:51;19.70;99.90
7842;DHT22;3966;51.052;13.820;2022-10-26T14:12:59;20.30;99.90
7842;DHT22;3966;51.052;13.820;2022-10-26T14:15:28;20.50;99.90
7842;DHT22;3966;51.052;13.820;2022-10-26T14:17:55;20.80;99.90
7842;DHT22;3966;51.052;13.820;2022-10-26T14:20:23;21.20;99.90
7842;DHT22;3966;51.052;13.820;2022-10-26T14:22:51;21.40;99.90
7842;DHT22;3966;51.052;13.820;2022-10-26T14:25:19;21.50;99.90
7842;DHT22;3966;51.052;13.820;2022-10-26T14:27:45;21.40;99.90
7842;DHT22;3966;51.052;13.820;2022-10-26T14:30:29;21.30;99.90
7842;DHT22;3966;51.052;13.820;2022-10-26T14:32:55;21.20;99.90
7842;DHT22;3966;51.052;13.820;2022-10-26T14:35:33;21.10;99.90
7842;DHT22;3966;51.052;13.820;2022-10-26T14:38:20;21.00;99.90
7842;DHT22;3966;51.052;13.820;2022-10-26T14:40:47;20.70;99.90
7842;DHT22;3966;51.052;13.820;2022-10-26T14:43:21;20.60;99.90
7842;DHT22;3966;51.052;13.820;2022-10-26T14:45:49;20.20;99.90
7842;DHT22;3966;51.052;13.820;2022-10-26T14:48:30;20.10;99.90
7842;DHT22;3966;51.052;13.820;2022-10-26T14:53:47;20.50;99.90
7842;DHT22;3966;51.052;13.820;2022-10-26T14:56:24;20.50;99.90
7842;DHT22;3966;51.052;13.820;2022-10-26T14:58:52;20.20;99.90
7842;DHT22;3966;51.052;13.820;2022-10-26T15:04:20;19.90;99.90
7842;DHT22;3966;51.052;13.820;2022-10-26T15:06:40;19.70;99.90
7842;DHT22;3966;51.052;13.820;2022-10-26T15:09:25;19.50;99.90
7842;DHT22;3966;51.052;13.820;2022-10-26T15:11:52;19.20;99.90
7842;DHT22;3966;51.052;13.820;2022-10-26T15:14:17;19.00;99.90
7842;DHT22;3966;51.052;13.820;2022-10-26T15:16:50;19.00;99.90
7842;DHT22;3966;51.052;13.820;2022-10-26T15:19:19;18.90;99.90
7842;DHT22;3966;51.052;13.820;2022-10-26T15:21:49;18.70;99.90
7842;DHT22;3966;51.052;13.820;2022-10-26T15:24:34;18.50;99.90
7842;DHT22;3966;51.052;13.820;2022-10-26T15:27:01;18.40;99.90
7842;DHT22;3966;51.052;13.820;2022-10-26T15:29:44;18.30;99.90
7842;DHT22;3966;51.052;13.820;2022-10-26T15:35:11;17.90;99.90
7842;DHT22;3966;51.052;13.820;2022-10-26T15:37:38;17.80;99.90
7842;DHT22;3966;51.052;13.820;2022-10-26T15:40:04;17.70;99.90
7842;DHT22;3966;51.052;13.820;2022-10-26T15:42:30;17.60;99.90
7842;DHT22;3966;51.052;13.820;2022-10-26T15:44:59;17.50;99.90
7842;DHT22;3966;51.052;13.820;2022-10-26T15:47:29;17.30;99.90
7842;DHT22;3966;51.052;13.820;2022-10-26T15:49:55;17.30;99.90
7842;DHT22;3966;51.052;13.820;2022-10-26T15:52:21;17.20;99.90
7842;DHT22;3966;51.052;13.820;2022-10-26T15:54:47;17.10;99.90
7842;DHT22;3966;51.052;13.820;2022-10-26T15:57:13;17.00;99.90
7842;DHT22;3966;51.052;13.820;2022-10-26T15:59:39;16.80;99.90
7842;DHT22;3966;51.052;13.820;2022-10-26T16:02:14;16.80;99.90
7842;DHT22;3966;51.052;13.820;2022-10-26T16:04:40;16.70;99.90
7842;DHT22;3966;51.052;13.820;2022-10-26T16:07:13;16.50;99.90
7842;DHT22;3966;51.052;13.820;2022-10-26T16:09:40;16.30;99.90
7842;DHT22;3966;51.052;13.820;2022-10-26T16:12:12;16.20;99.90
7842;DHT22;3966;51.052;13.820;2022-10-26T16:14:38;16.20;99.90
7842;DHT22;3966;51.052;13.820;2022-10-26T16:17:06;16.10;99.90
7842;DHT22;3966;51.052;13.820;2022-10-26T16:19:32;16.10;99.90
7842;DHT22;3966;51.052;13.820;2022-10-26T16:21:58;16.00;99.90
7842;DHT22;3966;51.052;13.820;2022-10-26T16:24:25;15.90;99.90
7842;DHT22;3966;51.052;13.820;2022-10-26T16:26:50;15.90;99.90
7842;DHT22;3966;51.052;13.820;2022-10-26T16:29:16;15.80;99.90
7842;DHT22;3966;51.052;13.820;2022-10-26T16:31:42;15.80;99.90
7842;DHT22;3966;51.052;13.820;2022-10-26T16:34:07;15.80;99.90
7842;DHT22;3966;51.052;13.820;2022-10-26T16:36:33;15.70;99.90
7842;DHT22;3966;51.052;13.820;2022-10-26T16:38:59;15.70;99.90
7842;DHT22;3966;51.052;13.820;2022-10-26T16:41:24;15.70;99.90
7842;DHT22;3966;51.052;13.820;2022-10-26T16:43:50;15.70;99.90
7842;DHT22;3966;51.052;13.820;2022-10-26T16:46:18;15.60;99.90
7842;DHT22;3966;51.052;13.820;2022-10-26T16:48:46;15.60;99.90
7842;DHT22;3966;51.052;13.820;2022-10-26T16:51:20;15.60;99.90
7842;DHT22;3966;51.052;13.820;2022-10-26T16:53:48;15.40;99.90
7842;DHT22;3966;51.052;13.820;2022-10-26T16:56:18;15.40;99.90
7842;DHT22;3966;51.052;13.820;2022-10-26T16:58:44;15.40;99.90
7842;DHT22;3966;51.052;13.820;2022-10-26T17:01:11;15.40;99.90
7842;DHT22;3966;51.052;13.820;2022-10-26T17:03:38;15.30;99.90
7842;DHT22;3966;51.052;13.820;2022-10-26T17:06:05;15.30;99.90
7842;DHT22;3966;51.052;13.820;2022-10-26T17:08:32;15.30;99.90
7842;DHT22;3966;51.052;13.820;2022-10-26T17:11:07;15.20;99.90
7842;DHT22;3966;51.052;13.820;2022-10-26T17:13:37;15.30;99.90
7842;DHT22;3966;51.052;13.820;2022-10-26T17:16:04;15.20;99.90
7842;DHT22;3966;51.052;13.820;2022-10-26T17:18:30;15.20;99.90
7842;DHT22;3966;51.052;13.820;2022-10-26T17:20:56;15.10;99.90
7842;DHT22;3966;51.052;13.820;2022-10-26T17:23:22;15.00;99.90
7842;DHT22;3966;51.052;13.820;2022-10-26T17:25:48;14.90;99.90
7842;DHT22;3966;51.052;13.820;2022-10-26T17:28:13;14.80;99.90
7842;DHT22;3966;51.052;13.820;2022-10-26T17:30:39;14.80;99.90
7842;DHT22;3966;51.052;13.820;2022-10-26T17:33:05;14.80;99.90
7842;DHT22;3966;51.052;13.820;2022-10-26T17:35:34;14.80;99.90
7842;DHT22;3966;51.052;13.820;2022-10-26T17:38:00;14.80;99.90
7842;DHT22;3966;51.052;13.820;2022-10-26T17:40:26;14.80;99.90
7842;DHT22;3966;51.052;13.820;2022-10-26T17:42:51;14.80;99.90
7842;DHT22;3966;51.052;13.820;2022-10-26T17:45:17;14.90;99.90
7842;DHT22;3966;51.052;13.820;2022-10-26T17:47:42;14.90;99.90
7842;DHT22;3966;51.052;13.820;2022-10-26T17:50:08;14.90;99.90
7842;DHT22;3966;51.052;13.820;2022-10-26T17:52:34;14.90;99.90
7842;DHT22;3966;51.052;13.820;2022-10-26T17:55:00;14.90;99.90
7842;DHT22;3966;51.052;13.820;2022-10-26T17:57:26;14.90;99.90
7842;DHT22;3966;51.052;13.820;2022-10-26T17:59:52;14.80;99.90
7842;DHT22;3966;51.052;13.820;2022-10-26T18:02:18;14.80;99.90
7842;DHT22;3966;51.052;13.820;2022-10-26T18:04:43;14.70;99.90
7842;DHT22;3966;51.052;13.820;2022-10-26T18:07:10;14.70;99.90
7842;DHT22;3966;51.052;13.820;2022-10-26T18:09:36;14.70;99.90
7842;DHT22;3966;51.052;13.820;2022-10-26T18:12:02;14.70;99.90
7842;DHT22;3966;51.052;13.820;2022-10-26T18:14:27;14.70;99.90
7842;DHT22;3966;51.052;13.820;2022-10-26T18:16:53;14.50;99.90
7842;DHT22;3966;51.052;13.820;2022-10-26T18:19:18;14.40;99.90
7842;DHT22;3966;51.052;13.820;2022-10-26T18:21:44;14.50;99.90